Livingston, New York
Current Conditions -  °F | °C
As of 4:54 AM on Sunday 23 Nov 2014 (Local Time) from KPSF Reporting Station
Haze Haze  
Wind Chill: 34°   Ceiling: 3300
Heat Index: 34°   Visibility: 4mi
Dew Point: 33°   Wind: 0mph
Humidity: 96%   Direction: NA
Pressure: 30.06"   Gusts: NA
Location:  42.14°N, 73.78°W
Report Text: KPSF 230954Z AUTO 00000KT 4SM BR OVC033 01/01 A3006 RMK AO2 SLP187 T00110006 $
Loading
Personal Weather Stations






























Interactive Weather Map New forecast layout! Learn more

10-Day Weather Forecast

Advertisements
Track Severe Weather on mobile